Time;durP1;ratioP1;P1;durP2;ratioP2;P2;SDS_P1;SDS_P2;PMS_P1;PMS_P2;Temp;Humidity;BMP_temperature;BMP_pressure;BME280_temperature;BME280_humidity;BME280_pressure;Samples;Min_cycle;Max_cycle;Signal;HPM_P1;HPM_P2
2021/12/26 00:00:26;;;;;;;1.40;0.68;;;;;;;17.81;25.07;97671.41;5096810;28;20390;-65
2021/12/26 00:02:51;;;;;;;2.08;1.05;;;;;;;17.79;24.84;97671.63;5096377;28;20028;-65
2021/12/26 00:05:19;;;;;;;1.17;0.80;;;;;;;17.80;24.89;97669.78;5096417;28;20035;-64
2021/12/26 00:07:44;;;;;;;1.35;0.70;;;;;;;17.79;24.81;97668.94;5095456;28;20032;-64
2021/12/26 00:10:14;;;;;;;1.08;0.80;;;;;;;17.80;24.82;97672.44;5096163;28;20028;-65
2021/12/26 00:12:40;;;;;;;1.05;0.88;;;;;;;17.78;24.82;97675.34;5096082;28;20031;-64
2021/12/26 00:15:06;;;;;;;1.17;0.80;;;;;;;17.79;24.87;97671.63;5095892;28;20439;-64
2021/12/26 00:17:31;;;;;;;1.00;0.68;;;;;;;17.79;25.03;97673.47;5095432;28;20154;-64
2021/12/26 00:19:57;;;;;;;1.20;0.65;;;;;;;17.79;24.95;97674.28;5095298;28;20118;-64
2021/12/26 00:22:24;;;;;;;1.08;0.82;;;;;;;17.79;24.64;97668.94;5095980;28;20039;-64
2021/12/26 00:24:50;;;;;;;1.17;0.70;;;;;;;17.79;24.78;97666.25;5095755;28;20035;-64
2021/12/26 00:27:18;;;;;;;1.83;0.95;;;;;;;17.81;24.81;97666.06;5094755;28;20035;-64
2021/12/26 00:29:45;;;;;;;2.15;0.93;;;;;;;17.82;24.82;97667.72;5095566;28;20506;-64
2021/12/26 00:32:11;;;;;;;2.08;0.80;;;;;;;17.80;24.69;97669.78;5095125;28;20044;-65
2021/12/26 00:34:37;;;;;;;1.67;1.00;;;;;;;17.81;24.89;97676.78;5095268;28;20095;-64
2021/12/26 00:37:04;;;;;;;2.35;0.90;;;;;;;17.80;24.85;97667.91;5093010;28;20034;-64
2021/12/26 00:39:31;;;;;;;2.47;1.10;;;;;;;17.82;24.73;97667.72;5090525;28;20031;-65
2021/12/26 00:41:56;;;;;;;2.83;0.90;;;;;;;17.82;24.67;97673.06;5094735;28;20039;-65
2021/12/26 00:44:22;;;;;;;1.25;0.90;;;;;;;17.84;24.82;97677.16;5095714;28;20044;-63
2021/12/26 00:46:49;;;;;;;1.80;0.88;;;;;;;17.88;25.04;97672.19;5094559;28;20035;-64
2021/12/26 00:49:15;;;;;;;2.40;0.90;;;;;;;17.92;24.94;97667.25;5094923;28;20482;-65
2021/12/26 00:51:40;;;;;;;2.60;0.90;;;;;;;17.94;24.96;97665.19;5095178;28;20031;-64
2021/12/26 00:54:06;;;;;;;1.42;1.00;;;;;;;17.96;25.00;97668.44;5095091;28;20055;-64
2021/12/26 00:56:31;;;;;;;1.58;0.85;;;;;;;17.99;25.10;97663.53;5095470;28;20451;-64
2021/12/26 00:58:57;;;;;;;1.85;0.70;;;;;;;18.02;25.01;97658.75;5082038;28;20048;-64
2021/12/26 01:01:23;;;;;;;1.75;0.98;;;;;;;18.03;24.98;97647.03;5089728;28;20081;-64
2021/12/26 01:03:48;;;;;;;0.70;0.65;;;;;;;18.03;25.07;97647.03;5094481;28;20042;-64
2021/12/26 01:06:14;;;;;;;1.55;1.00;;;;;;;18.08;24.98;97650.72;5094134;28;20055;-65
2021/12/26 01:08:42;;;;;;;0.82;0.60;;;;;;;18.08;25.12;97649.88;5094335;28;20482;-64
2021/12/26 01:11:18;;;;;;;3.20;1.13;;;;;;;18.09;25.12;97646.97;5091833;28;20118;-64
2021/12/26 01:13:46;;;;;;;3.25;0.85;;;;;;;18.11;24.94;97647.59;5094621;28;20039;-64
2021/12/26 01:16:14;;;;;;;0.88;0.68;;;;;;;18.13;24.87;97637.50;5093744;28;20066;-64
2021/12/26 01:18:44;;;;;;;1.00;0.80;;;;;;;18.14;24.99;97635.66;5094907;28;20115;-63
2021/12/26 01:21:24;;;;;;;1.52;0.80;;;;;;;18.15;25.13;97630.06;5093851;28;20031;-64
2021/12/26 01:23:57;;;;;;;1.48;0.70;;;;;;;18.17;25.24;97621.00;5094462;28;20115;-63
2021/12/26 01:26:23;;;;;;;1.40;0.80;;;;;;;18.25;25.20;97618.06;5094362;28;20055;-64
2021/12/26 01:28:49;;;;;;;1.55;0.80;;;;;;;18.31;25.15;97617.19;5093434;28;20449;-68
2021/12/26 01:31:23;;;;;;;1.35;0.95;;;;;;;18.39;25.15;97614.22;5088433;28;20032;-64
2021/12/26 01:33:55;;;;;;;1.90;1.00;;;;;;;18.42;24.61;97603.09;5092152;28;20355;-63
2021/12/26 01:36:21;;;;;;;1.60;0.80;;;;;;;18.43;24.61;97604.72;5094215;28;20024;-63
2021/12/26 01:38:46;;;;;;;4.60;1.35;;;;;;;18.42;24.58;97613.78;5093562;28;20028;-63
2021/12/26 01:41:15;;;;;;;6.40;0.82;;;;;;;18.40;24.63;97609.72;5093880;28;20510;-63
2021/12/26 01:43:45;;;;;;;1.58;0.70;;;;;;;18.35;24.53;97607.69;5093315;28;20498;-64
2021/12/26 01:46:11;;;;;;;1.55;0.80;;;;;;;18.34;24.59;97622.13;5092595;28;20077;-64
2021/12/26 01:48:37;;;;;;;2.70;1.30;;;;;;;18.33;24.55;97615.13;5088682;28;20499;-64
2021/12/26 01:51:03;;;;;;;2.90;0.90;;;;;;;18.32;24.64;97608.13;5084967;28;20054;-64
2021/12/26 01:53:39;;;;;;;1.20;0.75;;;;;;;18.33;24.70;97615.13;5092994;28;20172;-64
2021/12/26 01:56:10;;;;;;;1.10;0.75;;;;;;;18.34;24.52;97621.28;5086913;28;20045;-65
2021/12/26 01:58:36;;;;;;;3.25;0.98;;;;;;;18.31;24.58;97606.47;5093795;28;20062;-64
2021/12/26 02:01:07;;;;;;;14.75;1.13;;;;;;;18.34;24.59;97608.72;5093076;28;20494;-64
2021/12/26 02:03:34;;;;;;;1.70;0.95;;;;;;;18.33;24.72;97603.56;5079239;28;20031;-64
2021/12/26 02:06:00;;;;;;;3.67;0.88;;;;;;;18.32;24.69;97597.41;5094241;28;20475;-64
2021/12/26 02:08:25;;;;;;;1.85;1.10;;;;;;;18.33;24.65;97604.41;5090325;28;20115;-64
2021/12/26 02:10:51;;;;;;;2.17;1.10;;;;;;;18.32;24.82;97601.94;5092952;28;20091;-64
2021/12/26 02:13:17;;;;;;;3.83;0.80;;;;;;;18.31;24.74;97593.09;5093371;28;20483;-64
2021/12/26 02:15:42;;;;;;;4.75;0.80;;;;;;;18.30;24.72;97588.78;5093227;28;20036;-64
2021/12/26 02:18:09;;;;;;;1.05;0.80;;;;;;;18.30;24.80;97596.81;5091337;28;20036;-64
2021/12/26 02:23:31;;;;;;;3.35;1.00;;;;;;;18.24;24.90;97590.47;5093947;28;20043;-64
2021/12/26 02:28:25;;;;;;;3.30;1.00;;;;;;;18.25;24.91;97586.75;5092107;28;20479;-64
2021/12/26 02:30:53;;;;;;;1.23;0.77;;;;;;;18.27;24.93;97590.03;5093751;28;20397;-63
2021/12/26 02:33:19;;;;;;;1.65;0.95;;;;;;;18.25;25.02;97594.78;5085744;28;20040;-64
2021/12/26 02:35:46;;;;;;;1.40;0.98;;;;;;;18.26;24.90;97599.13;5089395;28;20093;-64
2021/12/26 02:38:13;;;;;;;0.90;0.70;;;;;;;18.23;24.89;97588.84;5092323;28;20093;-63
2021/12/26 02:40:40;;;;;;;1.70;1.02;;;;;;;18.21;24.82;97596.25;5093805;28;20066;-64
2021/12/26 02:43:06;;;;;;;1.40;0.80;;;;;;;18.21;25.09;97598.94;5093185;28;20023;-64
2021/12/26 02:45:33;;;;;;;1.13;0.85;;;;;;;18.20;24.91;97588.47;5092824;28;20139;-64
2021/12/26 02:47:59;;;;;;;1.20;0.70;;;;;;;18.18;24.93;97588.66;5089221;28;20047;-64
2021/12/26 02:50:30;;;;;;;2.47;0.80;;;;;;;18.17;24.93;97595.03;5073291;28;20107;-64
2021/12/26 02:52:58;;;;;;;1.27;0.82;;;;;;;18.17;25.22;97581.66;5072726;28;20048;-64
2021/12/26 02:55:24;;;;;;;1.73;0.80;;;;;;;18.16;25.05;97588.06;5080325;28;20090;-64
2021/12/26 02:57:55;;;;;;;2.80;0.93;;;;;;;18.15;24.97;97581.91;5092378;28;21430;-64
2021/12/26 03:00:25;;;;;;;1.58;0.85;;;;;;;18.15;24.91;97581.09;5092777;28;20449;-64
2021/12/26 03:02:53;;;;;;;1.60;0.85;;;;;;;18.14;25.03;97571.41;5092050;28;20070;-64
2021/12/26 03:05:20;;;;;;;1.48;0.93;;;;;;;18.11;25.25;97574.53;5093017;28;20040;-64
2021/12/26 03:07:47;;;;;;;1.55;0.80;;;;;;;18.11;25.02;97571.84;5092680;28;20032;-64
2021/12/26 03:10:21;;;;;;;0.90;0.80;;;;;;;18.12;25.17;97570.81;5091720;28;20028;-63
2021/12/26 03:12:58;;;;;;;1.92;1.00;;;;;;;18.10;25.01;97562.97;5092486;28;20063;-64
2021/12/26 03:15:26;;;;;;;1.10;0.68;;;;;;;18.09;25.00;97555.19;5092159;28;20039;-64
2021/12/26 03:17:52;;;;;;;1.60;0.80;;;;;;;18.08;25.33;97549.03;5091885;28;20036;-64
2021/12/26 03:20:25;;;;;;;2.47;0.70;;;;;;;18.10;25.05;97551.47;5092756;28;20038;-64
2021/12/26 03:22:50;;;;;;;1.05;0.90;;;;;;;18.08;24.75;97553.53;5092793;28;20070;-64
2021/12/26 03:25:19;;;;;;;1.15;0.82;;;;;;;18.07;25.09;97547.38;5091518;28;20470;-64
2021/12/26 03:27:45;;;;;;;1.02;0.80;;;;;;;18.08;25.05;97543.69;5091939;28;20479;-64
2021/12/26 03:30:15;;;;;;;1.58;0.60;;;;;;;18.06;24.99;97544.91;5092172;28;20554;-65
2021/12/26 03:32:41;;;;;;;2.00;1.15;;;;;;;18.07;25.08;97550.06;5092095;28;20043;-65
2021/12/26 03:35:07;;;;;;;1.42;0.70;;;;;;;18.07;25.46;97546.56;5091893;28;20364;-64
2021/12/26 03:37:34;;;;;;;0.70;0.63;;;;;;;18.04;25.14;97541.63;5092628;28;20109;-64
2021/12/26 03:39:59;;;;;;;1.85;1.00;;;;;;;18.03;25.23;97545.34;5092704;28;20034;-64
2021/12/26 03:42:25;;;;;;;1.65;0.90;;;;;;;18.02;25.46;97539.19;5092401;28;20032;-64
2021/12/26 03:44:51;;;;;;;1.38;1.05;;;;;;;18.03;25.08;97540.00;5087570;28;20028;-64
2021/12/26 03:47:18;;;;;;;0.90;0.70;;;;;;;18.05;24.94;97537.91;5092620;28;20032;-64
2021/12/26 03:49:44;;;;;;;1.42;1.00;;;;;;;18.04;25.23;97536.28;5092888;28;20073;-64
2021/12/26 03:52:10;;;;;;;1.10;0.77;;;;;;;18.04;25.11;97546.97;5091487;28;20458;-64
2021/12/26 03:54:36;;;;;;;2.17;0.65;;;;;;;18.05;25.20;97560.16;5092171;28;20059;-64
2021/12/26 03:57:02;;;;;;;1.33;0.70;;;;;;;18.03;25.23;97540.00;5092294;28;20532;-64
2021/12/26 03:59:27;;;;;;;2.45;1.00;;;;;;;18.05;25.20;97538.75;5092232;28;20032;-64
2021/12/26 04:01:57;;;;;;;1.35;0.77;;;;;;;18.04;25.06;97536.28;5092432;28;20059;-64
2021/12/26 04:04:22;;;;;;;1.42;0.90;;;;;;;18.05;25.23;97549.47;5091403;28;20040;-64
2021/12/26 04:06:48;;;;;;;1.80;0.90;;;;;;;18.06;25.29;97544.91;5092022;28;20030;-64
2021/12/26 04:09:14;;;;;;;1.70;1.00;;;;;;;18.07;25.30;97547.38;5091958;28;20028;-64
2021/12/26 04:11:43;;;;;;;0.60;0.57;;;;;;;18.06;25.32;97551.09;5091479;28;20052;-64
2021/12/26 04:14:09;;;;;;;2.60;0.73;;;;;;;18.08;25.53;97556.22;5092302;28;20038;-64
2021/12/26 04:16:35;;;;;;;1.90;1.35;;;;;;;18.07;25.23;97550.06;5091393;28;20081;-64
2021/12/26 04:19:00;;;;;;;1.38;0.95;;;;;;;18.08;25.27;97532.97;5091824;28;20027;-64
2021/12/26 04:21:26;;;;;;;1.17;0.75;;;;;;;18.08;25.33;97548.19;5094467;28;20040;-64
2021/12/26 04:23:51;;;;;;;1.10;0.63;;;;;;;18.10;25.38;97528.19;5094801;28;20028;-64
2021/12/26 04:26:17;;;;;;;1.27;0.70;;;;;;;18.10;25.28;97528.19;5094608;28;20039;-65
2021/12/26 04:28:43;;;;;;;2.35;0.80;;;;;;;18.10;25.28;97530.06;5096022;28;20023;-64
2021/12/26 04:31:08;;;;;;;1.48;0.75;;;;;;;18.11;25.46;97532.50;5095655;28;20032;-64
2021/12/26 04:33:34;;;;;;;1.20;0.70;;;;;;;18.14;25.30;97536.63;5095020;28;20395;-64
2021/12/26 04:35:59;;;;;;;0.88;0.70;;;;;;;18.15;25.21;97546.28;5094491;28;20039;-63
2021/12/26 04:38:25;;;;;;;1.33;0.80;;;;;;;18.15;25.27;97528.38;5095565;28;20024;-64
2021/12/26 04:40:51;;;;;;;1.23;1.00;;;;;;;18.16;25.33;97534.53;5095390;28;20035;-64
2021/12/26 04:43:20;;;;;;;0.50;0.40;;;;;;;18.17;25.22;97538.03;5094039;28;20032;-64
2021/12/26 04:45:47;;;;;;;0.57;0.50;;;;;;;18.18;25.16;97521.75;5095293;28;20060;-64
2021/12/26 04:48:14;;;;;;;2.58;0.80;;;;;;;18.18;25.29;97527.09;5095442;28;20043;-64
2021/12/26 04:50:39;;;;;;;1.75;0.90;;;;;;;18.20;25.32;97527.69;5094830;28;20544;-64
2021/12/26 04:53:05;;;;;;;1.73;0.80;;;;;;;18.20;25.30;97526.91;5094284;28;20052;-64
2021/12/26 04:55:31;;;;;;;0.93;0.80;;;;;;;18.20;25.36;97530.38;5094149;28;20451;-64
2021/12/26 04:57:58;;;;;;;2.03;1.40;;;;;;;18.22;25.47;97527.50;5095058;28;20107;-64
2021/12/26 05:00:27;;;;;;;1.63;0.82;;;;;;;18.21;25.84;97537.38;5094664;28;20047;-64
2021/12/26 05:02:53;;;;;;;1.50;0.95;;;;;;;18.18;25.68;97529.78;5073379;28;20051;-64
2021/12/26 05:05:19;;;;;;;1.20;0.70;;;;;;;18.18;25.79;97534.31;5094743;28;20016;-65
2021/12/26 05:07:45;;;;;;;2.08;0.70;;;;;;;18.19;25.84;97538.63;5094779;28;20028;-65
2021/12/26 05:10:13;;;;;;;1.20;0.75;;;;;;;18.18;25.77;97537.00;5094877;28;20390;-65
2021/12/26 05:12:40;;;;;;;1.08;0.80;;;;;;;18.19;25.59;97538.63;5094280;28;20049;-65
2021/12/26 05:15:07;;;;;;;1.25;0.75;;;;;;;18.20;25.52;97549.13;5094907;28;20077;-65
2021/12/26 05:17:33;;;;;;;1.33;0.88;;;;;;;18.19;25.76;97539.44;5094132;28;20028;-65
2021/12/26 05:19:59;;;;;;;1.40;0.63;;;;;;;18.20;25.67;97556.34;5094717;28;20384;-65
2021/12/26 05:22:25;;;;;;;1.40;0.70;;;;;;;18.20;25.75;97561.69;5094526;28;20510;-65
2021/12/26 05:24:51;;;;;;;1.20;0.75;;;;;;;18.20;25.51;97546.44;5094940;28;20070;-64
2021/12/26 05:27:17;;;;;;;1.20;0.70;;;;;;;18.20;25.76;97557.16;5093328;28;20051;-64
2021/12/26 05:29:43;;;;;;;1.27;0.88;;;;;;;18.19;25.46;97552.81;5093598;28;20043;-65
2021/12/26 05:32:09;;;;;;;0.88;0.70;;;;;;;18.21;25.50;97544.59;5074665;28;20068;-64
2021/12/26 05:34:34;;;;;;;1.27;0.80;;;;;;;18.20;25.64;97546.44;5094491;28;20085;-65
2021/12/26 05:37:00;;;;;;;1.10;0.60;;;;;;;18.22;25.57;97548.91;5094125;28;20040;-65
2021/12/26 05:39:26;;;;;;;1.02;0.70;;;;;;;18.20;25.38;97534.94;5094519;28;20032;-65
2021/12/26 05:41:51;;;;;;;1.58;0.85;;;;;;;18.23;25.56;97535.28;5093006;28;20024;-65
2021/12/26 05:44:17;;;;;;;1.38;1.00;;;;;;;18.23;25.58;97539.84;5093920;28;20521;-64
2021/12/26 05:46:42;;;;;;;0.70;0.60;;;;;;;18.24;25.50;97542.28;5093751;28;20084;-64
2021/12/26 05:49:08;;;;;;;1.13;0.60;;;;;;;18.21;25.45;97534.69;5094079;28;20036;-64
2021/12/26 05:51:33;;;;;;;1.02;0.77;;;;;;;18.23;25.58;97537.97;5093227;28;20032;-64
2021/12/26 05:54:00;;;;;;;1.42;0.85;;;;;;;18.23;25.47;97532.63;5093674;28;20075;-64
2021/12/26 05:56:26;;;;;;;1.10;0.70;;;;;;;18.25;25.60;97533.22;5093223;28;20091;-65
2021/12/26 05:58:51;;;;;;;1.30;0.80;;;;;;;18.23;25.67;97535.28;5093232;28;20028;-64
2021/12/26 06:01:17;;;;;;;1.10;0.80;;;;;;;18.25;25.39;97543.94;5073630;28;20036;-64
2021/12/26 06:03:43;;;;;;;1.38;0.65;;;;;;;18.25;25.50;97537.75;5073463;28;20040;-64
2021/12/26 06:06:08;;;;;;;2.45;1.08;;;;;;;18.25;25.73;97525.19;5073709;28;20028;-64
2021/12/26 06:08:34;;;;;;;1.10;0.80;;;;;;;18.26;25.67;97534.88;5092737;28;20040;-64
2021/12/26 06:11:00;;;;;;;1.52;0.90;;;;;;;18.26;25.52;97524.16;5093171;28;20397;-64
2021/12/26 06:13:25;;;;;;;1.30;1.00;;;;;;;18.30;25.52;97521.84;5093637;28;20406;-64
2021/12/26 06:15:51;;;;;;;1.02;0.70;;;;;;;18.29;25.57;97525.56;5093723;28;20034;-64
2021/12/26 06:18:16;;;;;;;1.38;0.80;;;;;;;18.28;25.41;97527.44;5092898;28;20115;-64
2021/12/26 06:20:42;;;;;;;1.27;0.93;;;;;;;18.29;25.66;97512.19;5093789;28;20097;-64
2021/12/26 06:23:07;;;;;;;1.30;0.80;;;;;;;18.29;25.53;97510.34;5091873;28;20035;-64
2021/12/26 06:25:33;;;;;;;1.80;0.98;;;;;;;18.30;25.51;97519.19;5092581;28;20031;-64
2021/12/26 06:27:59;;;;;;;3.78;1.00;;;;;;;18.31;25.53;97520.81;5092800;28;20027;-64
2021/12/26 06:30:25;;;;;;;2.33;1.00;;;;;;;18.28;25.61;97515.91;5093488;28;20379;-63
2021/12/26 06:32:50;;;;;;;1.75;1.00;;;;;;;18.28;25.58;97519.41;5093258;28;20089;-65
2021/12/26 06:35:16;;;;;;;0.98;0.70;;;;;;;18.30;25.51;97505.78;5092411;28;20054;-65
2021/12/26 06:37:42;;;;;;;1.45;0.80;;;;;;;18.29;25.65;97509.50;5092376;28;20024;-65
2021/12/26 06:40:10;;;;;;;1.55;1.08;;;;;;;18.30;25.59;97519.19;5093426;28;20036;-65
2021/12/26 06:42:41;;;;;;;1.50;0.68;;;;;;;18.29;25.61;97507.66;5093148;28;20024;-65
2021/12/26 06:45:11;;;;;;;1.15;0.82;;;;;;;18.29;25.74;97515.69;5092700;28;20032;-64
2021/12/26 06:47:37;;;;;;;1.50;0.80;;;;;;;18.29;25.53;97520.22;5092860;28;20499;-65
2021/12/26 06:50:05;;;;;;;1.63;1.00;;;;;;;18.30;25.54;97520.00;5093286;28;20031;-65
2021/12/26 06:52:30;;;;;;;1.58;0.85;;;;;;;18.33;25.46;97523.25;5091629;28;20044;-65
2021/12/26 06:54:56;;;;;;;2.22;0.82;;;;;;;18.33;25.60;97517.91;5092787;28;20024;-65
2021/12/26 06:57:21;;;;;;;2.05;1.27;;;;;;;18.34;25.51;97519.53;5093196;28;20085;-65
2021/12/26 06:59:47;;;;;;;2.38;0.85;;;;;;;18.36;25.67;97518.31;5092590;28;20047;-66
2021/12/26 07:02:12;;;;;;;2.15;1.20;;;;;;;18.37;25.75;97511.91;5091886;28;20059;-65
2021/12/26 07:04:38;;;;;;;1.58;1.00;;;;;;;18.39;25.56;97504.44;5093310;28;20040;-65
2021/12/26 07:07:03;;;;;;;1.42;0.95;;;;;;;18.38;25.56;97502.81;5092651;28;20032;-65
2021/12/26 07:09:29;;;;;;;2.03;1.20;;;;;;;18.38;25.61;97510.84;5092584;28;20449;-65
2021/12/26 07:11:54;;;;;;;1.33;0.82;;;;;;;18.39;25.55;97509.00;5092482;28;20043;-65
2021/12/26 07:14:20;;;;;;;2.03;0.90;;;;;;;18.42;25.53;97508.56;5092944;28;20039;-65
2021/12/26 07:16:46;;;;;;;1.13;0.70;;;;;;;18.43;25.61;97512.88;5091626;28;20111;-65
2021/12/26 07:19:11;;;;;;;1.75;0.93;;;;;;;18.45;25.69;97518.84;5092813;28;20040;-64
2021/12/26 07:21:37;;;;;;;1.85;0.90;;;;;;;18.44;25.77;97514.53;5091238;28;20032;-65
2021/12/26 07:24:04;;;;;;;2.83;1.05;;;;;;;18.45;25.61;97514.28;5092127;28;20050;-64
2021/12/26 07:26:30;;;;;;;2.17;1.00;;;;;;;18.46;25.55;97512.41;5092412;28;20050;-64
2021/12/26 07:28:55;;;;;;;2.33;0.98;;;;;;;18.47;25.60;97515.94;5091910;28;20040;-64
2021/12/26 07:31:21;;;;;;;2.88;1.20;;;;;;;18.47;25.67;97505.22;5091904;28;20065;-63
2021/12/26 07:33:47;;;;;;;2.30;1.10;;;;;;;18.48;25.58;97498.81;5092776;28;20437;-66
2021/12/26 07:36:13;;;;;;;1.35;0.77;;;;;;;18.48;25.52;97499.63;5092129;28;20032;-66
2021/12/26 07:38:38;;;;;;;1.83;1.00;;;;;;;18.49;25.63;97490.56;5091978;28;20032;-65
2021/12/26 07:41:04;;;;;;;1.33;0.82;;;;;;;18.51;25.72;97504.53;5091090;28;20032;-65
2021/12/26 07:43:29;;;;;;;2.60;1.25;;;;;;;18.52;25.64;97500.81;5092280;28;20039;-65
2021/12/26 07:45:55;;;;;;;1.15;0.90;;;;;;;18.55;25.57;97504.91;5092640;28;20085;-65
2021/12/26 07:48:20;;;;;;;1.55;1.00;;;;;;;18.57;25.77;97498.31;5091497;28;20031;-65
2021/12/26 07:50:46;;;;;;;1.13;0.90;;;;;;;18.57;25.72;97495.63;5081930;28;20051;-65
2021/12/26 07:53:12;;;;;;;1.23;1.10;;;;;;;18.58;25.86;97499.13;5080429;28;20109;-65
2021/12/26 07:55:39;;;;;;;1.48;0.75;;;;;;;18.60;25.82;97497.84;5090778;28;20032;-62
2021/12/26 07:58:05;;;;;;;1.45;0.88;;;;;;;18.65;25.82;97496.38;5081625;28;20040;-65
2021/12/26 08:00:31;;;;;;;1.80;1.00;;;;;;;18.65;26.00;97493.69;5087424;28;20036;-64
2021/12/26 08:02:58;;;;;;;1.75;0.90;;;;;;;18.67;26.01;97489.75;5096419;28;20115;-66
2021/12/26 08:05:24;;;;;;;1.52;0.95;;;;;;;18.69;26.35;97490.31;5096452;28;20131;-65
2021/12/26 08:07:50;;;;;;;2.08;1.17;;;;;;;18.70;26.38;97485.81;5095706;28;20050;-66
2021/12/26 08:10:17;;;;;;;3.33;1.63;;;;;;;18.77;26.41;97483.84;5094348;28;20032;-64
2021/12/26 08:12:42;;;;;;;3.75;1.77;;;;;;;18.79;26.49;97481.78;5092347;28;20044;-66
2021/12/26 08:15:08;;;;;;;4.90;2.65;;;;;;;18.80;26.37;97479.94;5080618;28;20407;-65
2021/12/26 08:19:31;;;;;;;3.60;1.98;;;;;;;18.84;26.46;97475.72;5193716;27;20206;-64
2021/12/26 08:21:57;;;;;;;3.75;1.95;;;;;;;18.88;26.48;97479.59;5162358;27;20126;-65
2021/12/26 08:24:25;;;;;;;5.28;2.03;;;;;;;18.90;26.50;97470.28;5150159;27;20496;-65
2021/12/26 08:26:51;;;;;;;3.38;1.70;;;;;;;18.91;26.60;97469.25;5151025;27;20031;-65
2021/12/26 08:29:20;;;;;;;4.32;1.80;;;;;;;18.93;26.45;97461.00;5151107;27;20553;-65
2021/12/26 08:31:45;;;;;;;3.47;1.90;;;;;;;18.94;26.35;97468.03;5147443;27;20038;-66
2021/12/26 08:34:11;;;;;;;4.05;2.22;;;;;;;18.96;26.29;97465.13;5149503;27;20035;-65
2021/12/26 08:36:37;;;;;;;4.43;2.50;;;;;;;18.97;26.48;97464.06;5150114;27;20042;-64
2021/12/26 08:39:03;;;;;;;3.92;2.30;;;;;;;18.95;26.50;97461.63;5150908;27;20031;-64
2021/12/26 08:41:29;;;;;;;3.75;2.20;;;;;;;18.97;26.29;97464.88;5148291;27;20485;-64
2021/12/26 08:43:55;;;;;;;5.57;2.63;;;;;;;18.98;26.24;97446.94;5138319;27;20035;-66
2021/12/26 08:46:22;;;;;;;9.23;3.30;;;;;;;18.99;26.38;97464.66;5147478;27;20095;-67
2021/12/26 08:48:47;;;;;;;7.25;3.35;;;;;;;19.00;26.48;97452.91;5150411;27;20500;-66
2021/12/26 08:51:14;;;;;;;8.82;4.03;;;;;;;19.03;26.60;97444.41;5150412;27;20034;-66
2021/12/26 08:53:39;;;;;;;12.20;4.90;;;;;;;19.05;26.69;97440.47;5150725;27;20117;-69
2021/12/26 08:56:05;;;;;;;11.00;4.63;;;;;;;19.08;26.84;97433.00;5150907;27;20450;-70
2021/12/26 08:58:30;;;;;;;15.30;4.65;;;;;;;19.15;27.11;97442.59;5148341;27;20035;-66
2021/12/26 09:00:56;;;;;;;9.20;4.35;;;;;;;19.20;27.21;97440.03;5149089;27;20042;-67
2021/12/26 09:03:22;;;;;;;8.98;3.38;;;;;;;19.25;27.32;97428.63;5146157;27;20042;-67
2021/12/26 09:05:48;;;;;;;12.40;3.67;;;;;;;19.29;27.21;97434.34;5149947;27;20034;-66
2021/12/26 09:08:13;;;;;;;6.88;4.45;;;;;;;19.30;27.19;97433.31;5149646;27;20516;-66
2021/12/26 09:10:40;;;;;;;5.38;3.03;;;;;;;19.33;27.10;97430.97;5147815;27;20666;-66
2021/12/26 09:13:07;;;;;;;8.23;2.78;;;;;;;19.34;27.16;97429.94;5148751;27;20046;-67
2021/12/26 09:15:33;;;;;;;5.65;2.88;;;;;;;19.38;26.94;97437.53;5150799;27;20492;-65
2021/12/26 09:18:00;;;;;;;5.68;2.60;;;;;;;19.36;27.11;97422.47;5149983;27;20058;-68
2021/12/26 09:20:26;;;;;;;3.20;2.10;;;;;;;19.33;27.15;97424.81;5148221;27;20396;-66
2021/12/26 09:22:53;;;;;;;5.07;2.53;;;;;;;19.27;27.14;97415.78;5146531;27;20031;-66
2021/12/26 09:25:18;;;;;;;4.72;2.15;;;;;;;19.21;26.94;97417.53;5138479;27;20038;-67
2021/12/26 09:27:44;;;;;;;5.82;2.05;;;;;;;19.16;26.89;97414.75;5148933;27;20296;-68
2021/12/26 09:30:12;;;;;;;4.45;2.38;;;;;;;19.12;26.82;97408.19;5140196;27;20132;-67
2021/12/26 09:32:37;;;;;;;4.68;2.03;;;;;;;19.09;26.93;97411.31;5135994;27;20030;-67
2021/12/26 09:35:04;;;;;;;4.63;1.98;;;;;;;19.05;26.97;97399.41;5135044;27;20420;-67
2021/12/26 09:37:31;;;;;;;4.35;1.90;;;;;;;19.03;26.94;97410.38;5129155;27;20039;-66
2021/12/26 09:39:57;;;;;;;6.00;1.95;;;;;;;19.02;26.69;97408.75;5133800;27;20035;-67
2021/12/26 09:42:24;;;;;;;4.95;2.20;;;;;;;19.01;26.86;97409.78;5133607;27;20027;-67
2021/12/26 09:44:50;;;;;;;3.70;2.15;;;;;;;19.00;26.74;97407.34;5132752;27;20035;-68
2021/12/26 09:47:16;;;;;;;2.67;1.52;;;;;;;19.00;26.82;97413.50;5135334;27;20092;-68
2021/12/26 09:49:41;;;;;;;3.13;1.58;;;;;;;18.96;26.38;97403.47;5131741;27;20031;-66
2021/12/26 09:52:09;;;;;;;3.33;1.83;;;;;;;18.95;26.67;97393.81;5132147;27;20035;-68
2021/12/26 09:54:34;;;;;;;3.47;1.70;;;;;;;18.94;27.22;97384.97;5133558;27;20127;-66
2021/12/26 09:57:01;;;;;;;4.95;2.05;;;;;;;18.99;27.47;97385.06;5129837;27;20454;-68
2021/12/26 09:59:30;;;;;;;7.50;2.55;;;;;;;19.04;27.27;97385.22;5129004;27;20062;-66
2021/12/26 10:02:00;;;;;;;3.92;1.65;;;;;;;19.10;27.12;97375.44;5133942;27;20026;-66
2021/12/26 10:04:31;;;;;;;2.83;1.60;;;;;;;19.13;27.07;97382.19;5134080;27;20039;-66
2021/12/26 10:07:02;;;;;;;;;;;;;;;19.09;27.10;97379.16;5134428;27;20727;-66
2021/12/26 10:09:29;;;;;;;4.55;1.55;;;;;;;19.11;27.08;97368.22;5118913;27;19915;-66
2021/12/26 10:11:58;;;;;;;12.35;2.15;;;;;;;19.14;27.01;97375.78;5125064;27;20446;-66
2021/12/26 10:14:27;;;;;;;4.22;2.03;;;;;;;19.15;26.92;97374.75;5135177;27;20031;-66
2021/12/26 10:16:59;;;;;;;6.35;1.75;;;;;;;19.15;26.79;97382.78;5135121;27;20031;-67
2021/12/26 10:19:25;;;;;;;5.22;1.63;;;;;;;19.15;26.79;97375.56;5134870;27;20069;-66
2021/12/26 10:21:57;;;;;;;4.53;1.80;;;;;;;19.15;26.76;97370.22;5135188;27;20030;-66
2021/12/26 10:24:28;;;;;;;6.32;2.42;;;;;;;19.15;26.67;97359.50;5135174;27;20395;-65
2021/12/26 10:26:58;;;;;;;5.57;2.50;;;;;;;19.15;26.50;97364.84;5135102;27;20428;-66
2021/12/26 10:29:27;;;;;;;6.90;3.15;;;;;;;19.14;26.61;97357.84;5135483;27;20023;-66
2021/12/26 10:32:23;;;;;;;5.85;2.55;;;;;;;19.13;26.49;97363.44;5134941;27;20079;-66
2021/12/26 10:35:05;;;;;;;5.97;2.20;;;;;;;19.13;26.45;97353.53;5132931;27;20087;-66
2021/12/26 10:37:40;;;;;;;4.93;2.47;;;;;;;19.15;26.24;97348.78;5134843;27;20032;-66
2021/12/26 10:40:10;;;;;;;3.90;2.20;;;;;;;19.14;26.43;97347.13;5134934;27;20099;-67
2021/12/26 10:42:38;;;;;;;5.38;2.30;;;;;;;19.10;26.45;97340.59;5133863;27;20061;-65
2021/12/26 10:45:09;;;;;;;7.00;2.58;;;;;;;19.12;26.44;97335.00;5134289;27;20042;-66
2021/12/26 10:47:37;;;;;;;4.18;2.38;;;;;;;19.11;26.52;97339.56;5134404;27;20034;-66
2021/12/26 10:50:14;;;;;;;4.78;2.03;;;;;;;19.12;26.49;97318.91;5134504;27;20038;-66
2021/12/26 10:52:48;;;;;;;3.58;1.98;;;;;;;19.12;26.47;97317.06;5134540;27;20473;-66
2021/12/26 10:55:17;;;;;;;5.18;2.55;;;;;;;19.13;26.63;97326.75;5134591;27;20026;-66
2021/12/26 10:57:51;;;;;;;3.78;2.20;;;;;;;19.12;26.50;97314.38;5134299;27;20035;-66
2021/12/26 11:00:21;;;;;;;4.25;2.10;;;;;;;19.15;26.51;97315.78;5134653;27;20043;-65
2021/12/26 11:03:08;;;;;;;5.95;2.22;;;;;;;19.13;26.38;97317.88;5134373;27;20397;-65
2021/12/26 11:05:45;;;;;;;3.83;1.90;;;;;;;19.14;26.49;97304.25;5134717;27;20035;-65
2021/12/26 11:08:25;;;;;;;3.88;1.98;;;;;;;19.14;26.35;97303.41;5134062;27;20512;-66
2021/12/26 11:10:52;;;;;;;4.43;2.00;;;;;;;19.12;26.27;97313.53;5134471;27;20034;-66
2021/12/26 11:13:30;;;;;;;3.15;1.50;;;;;;;19.13;26.40;97315.19;5133870;27;20038;-66
2021/12/26 11:15:58;;;;;;;3.30;2.13;;;;;;;19.15;26.23;97302.38;5134179;27;20058;-66
2021/12/26 11:18:24;;;;;;;3.72;1.75;;;;;;;19.15;26.28;97307.72;5133765;27;20100;-66
2021/12/26 11:20:56;;;;;;;3.40;1.48;;;;;;;19.13;26.36;97307.97;5133931;27;20027;-66
2021/12/26 11:23:27;;;;;;;2.83;1.88;;;;;;;19.12;26.32;97295.63;5134152;27;20462;-66
2021/12/26 11:25:54;;;;;;;;;;;;;;;19.06;26.27;97307.25;5134708;27;20079;-65
2021/12/26 11:28:26;;;;;;;3.92;1.90;;;;;;;19.05;26.14;97303.78;5134026;27;20352;-68
2021/12/26 11:30:55;;;;;;;3.35;1.60;;;;;;;19.05;26.23;97303.78;5133832;27;20035;-68
2021/12/26 11:33:21;;;;;;;2.60;1.13;;;;;;;19.02;26.27;97296.19;5133887;27;20431;-66
2021/12/26 11:35:48;;;;;;;4.80;1.70;;;;;;;19.06;26.18;97304.56;5133776;27;20378;-66
2021/12/26 11:38:19;;;;;;;3.03;1.58;;;;;;;19.09;26.42;97300.63;5133638;27;20070;-65
2021/12/26 11:40:47;;;;;;;3.00;1.40;;;;;;;19.06;26.21;97299.22;5133986;27;20051;-65